Time;durP1;ratioP1;P1;durP2;ratioP2;P2;SDS_P1;SDS_P2;PMS_P1;PMS_P2;Temp;Humidity;BMP_temperature;BMP_pressure;BME280_temperature;BME280_humidity;BME280_pressure;Samples;Min_cycle;Max_cycle;Signal;HPM_P1;HPM_P2
2023/01/26 00:02:20;;;;;;;67.67;32.47;;;0.30;99.90;;;;;;5051090;28;20475;-61
2023/01/26 00:04:48;;;;;;;70.37;34.13;;;0.20;99.90;;;;;;5044219;28;20461;-61
2023/01/26 00:07:16;;;;;;;67.80;32.37;;;0.20;99.90;;;;;;5039936;28;20478;-61
2023/01/26 00:09:44;;;;;;;68.20;32.27;;;0.20;99.90;;;;;;5032939;28;20471;-61
2023/01/26 00:12:12;;;;;;;65.10;31.33;;;0.20;99.90;;;;;;5032752;28;20459;-61
2023/01/26 00:14:52;;;;;;;68.63;33.87;;;0.20;99.90;;;;;;5032956;28;20478;-61
2023/01/26 00:17:27;;;;;;;73.13;33.73;;;0.20;99.90;;;;;;5033256;28;20973;-61
2023/01/26 00:19:57;;;;;;;66.87;33.27;;;0.20;99.90;;;;;;5033289;28;20481;-61
2023/01/26 00:22:27;;;;;;;65.83;31.87;;;0.20;99.90;;;;;;5033048;28;20470;-61
2023/01/26 00:24:55;;;;;;;73.47;33.47;;;0.20;99.90;;;;;;5032914;28;20466;-61
2023/01/26 00:27:23;;;;;;;77.23;35.77;;;0.20;99.90;;;;;;5033728;28;20981;-61
2023/01/26 00:29:51;;;;;;;79.30;35.83;;;0.20;99.90;;;;;;5044653;28;20555;-61
2023/01/26 00:32:20;;;;;;;74.13;34.13;;;0.20;99.90;;;;;;5051739;28;20477;-61
2023/01/26 00:34:48;;;;;;;62.37;31.17;;;0.20;99.90;;;;;;5045504;28;20471;-61
2023/01/26 00:37:16;;;;;;;71.90;33.27;;;0.20;99.90;;;;;;5043728;28;20458;-61
2023/01/26 00:39:44;;;;;;;71.27;34.83;;;0.20;99.90;;;;;;5036718;28;20990;-61
2023/01/26 00:42:14;;;;;;;70.07;34.57;;;0.20;99.90;;;;;;5036674;28;20986;-61
2023/01/26 00:44:43;;;;;;;68.03;31.47;;;0.20;99.90;;;;;;5036351;28;20823;-61
2023/01/26 00:47:12;;;;;;;69.20;33.27;;;0.30;99.90;;;;;;5037033;28;20959;-60
2023/01/26 00:49:42;;;;;;;70.00;32.67;;;0.30;99.90;;;;;;5035066;28;20475;-61
2023/01/26 00:52:10;;;;;;;72.73;33.90;;;0.30;99.90;;;;;;5036745;28;20459;-61
2023/01/26 00:54:38;;;;;;;71.87;33.57;;;0.30;99.90;;;;;;5036127;28;20562;-61
2023/01/26 00:57:07;;;;;;;73.97;34.17;;;0.20;99.90;;;;;;5036414;28;20954;-61
2023/01/26 00:59:35;;;;;;;73.13;33.57;;;0.20;99.90;;;;;;5047472;28;20451;-61
2023/01/26 01:02:04;;;;;;;76.50;33.83;;;0.30;99.90;;;;;;5055252;28;20467;-61
2023/01/26 01:04:32;;;;;;;70.83;33.53;;;0.20;99.90;;;;;;5049262;28;20459;-61
2023/01/26 01:07:02;;;;;;;69.80;34.63;;;0.20;99.90;;;;;;5042844;28;20514;-61
2023/01/26 01:09:31;;;;;;;74.47;33.73;;;0.20;99.90;;;;;;5029605;28;20570;-61
2023/01/26 01:11:59;;;;;;;73.10;33.70;;;0.20;99.90;;;;;;5035110;28;20467;-62
2023/01/26 01:14:28;;;;;;;68.87;33.00;;;0.20;99.90;;;;;;5038398;28;20467;-61
2023/01/26 01:16:56;;;;;;;67.17;32.13;;;0.20;99.90;;;;;;5036163;28;20467;-61
2023/01/26 01:19:24;;;;;;;74.50;33.37;;;0.30;99.90;;;;;;5035816;28;20463;-61
2023/01/26 01:21:52;;;;;;;65.17;31.53;;;0.40;99.90;;;;;;5035851;28;20488;-61
2023/01/26 01:24:21;;;;;;;65.70;31.57;;;0.30;99.90;;;;;;5034898;28;20470;-61
2023/01/26 01:26:49;;;;;;;69.57;32.60;;;0.40;99.90;;;;;;5035789;28;20486;-61
2023/01/26 01:29:17;;;;;;;68.93;31.37;;;0.50;99.90;;;;;;5047250;28;20517;-61
2023/01/26 01:31:46;;;;;;;69.47;33.20;;;0.40;99.90;;;;;;5050615;28;20470;-61
2023/01/26 01:34:14;;;;;;;78.13;34.53;;;0.30;99.90;;;;;;5051357;28;20888;-61
2023/01/26 01:36:42;;;;;;;66.63;29.80;;;0.30;99.90;;;;;;5043330;28;20486;-61
2023/01/26 01:39:10;;;;;;;70.67;32.67;;;0.40;99.90;;;;;;5034296;28;20474;-61
2023/01/26 01:41:39;;;;;;;63.90;29.87;;;0.50;99.90;;;;;;5035226;28;20480;-61
2023/01/26 01:44:16;;;;;;;73.30;31.93;;;0.50;99.90;;;;;;5033973;28;20470;-61
2023/01/26 01:46:49;;;;;;;68.93;31.90;;;0.50;99.90;;;;;;5034285;28;20467;-61
2023/01/26 01:49:22;;;;;;;67.90;32.17;;;0.40;99.90;;;;;;5035226;28;20510;-61
2023/01/26 01:51:55;;;;;;;66.60;32.03;;;0.40;99.90;;;;;;5035527;28;21010;-61
2023/01/26 01:54:28;;;;;;;64.63;31.17;;;0.40;99.90;;;;;;5033821;28;20515;-61
2023/01/26 01:57:02;;;;;;;63.53;30.13;;;0.40;99.90;;;;;;5035350;28;20500;-61
2023/01/26 01:59:32;;;;;;;69.10;31.83;;;0.50;99.90;;;;;;5044970;28;21061;-61
2023/01/26 02:02:00;;;;;;;71.27;32.23;;;0.50;99.90;;;;;;5044274;28;20483;-61
2023/01/26 02:04:29;;;;;;;66.77;30.67;;;0.50;99.90;;;;;;5046574;28;20502;-61
2023/01/26 02:07:00;;;;;;;64.70;31.03;;;0.50;99.90;;;;;;5042958;28;20466;-60
2023/01/26 02:12:22;;;;;;;64.17;31.10;;;0.50;99.90;;;;;;5033544;28;20468;-60
2023/01/26 02:14:52;;;;;;;60.77;30.17;;;0.50;99.90;;;;;;5033771;28;20823;-60
2023/01/26 02:17:21;;;;;;;62.80;29.07;;;0.60;99.90;;;;;;5035115;28;20486;-61
2023/01/26 02:19:57;;;;;;;63.50;29.97;;;0.60;99.90;;;;;;5033306;28;20477;-62
2023/01/26 02:22:34;;;;;;;55.87;27.07;;;0.60;99.90;;;;;;5034974;28;20487;-61
2023/01/26 02:25:12;;;;;;;57.03;27.77;;;0.60;99.90;;;;;;5033520;28;20467;-61
2023/01/26 02:27:42;;;;;;;67.20;30.57;;;0.60;99.90;;;;;;5036082;28;20569;-60
2023/01/26 02:30:13;;;;;;;69.80;31.30;;;0.70;99.90;;;;;;5039276;28;20462;-61
2023/01/26 02:32:44;;;;;;;62.73;29.73;;;0.60;99.90;;;;;;5052917;28;20465;-61
2023/01/26 02:35:12;;;;;;;62.83;30.17;;;0.60;99.90;;;;;;5044890;28;20481;-60
2023/01/26 02:37:40;;;;;;;62.93;30.63;;;0.60;99.90;;;;;;5036487;28;20529;-60
2023/01/26 02:40:18;;;;;;;64.13;30.47;;;0.60;99.90;;;;;;5033172;28;20484;-61
2023/01/26 02:42:47;;;;;;;60.37;30.70;;;0.60;99.90;;;;;;5032920;28;20483;-61
2023/01/26 02:45:16;;;;;;;63.33;28.67;;;0.70;99.90;;;;;;5034369;28;20459;-61
2023/01/26 02:47:46;;;;;;;64.90;29.87;;;0.60;99.90;;;;;;5032741;28;20476;-61
2023/01/26 02:50:14;;;;;;;57.30;29.10;;;0.70;99.90;;;;;;5032974;28;20832;-60
2023/01/26 02:52:44;;;;;;;60.07;29.73;;;0.60;99.90;;;;;;5032882;28;20476;-61
2023/01/26 02:55:24;;;;;;;63.03;29.97;;;0.60;99.90;;;;;;5032020;28;20514;-61
2023/01/26 02:57:56;;;;;;;61.50;29.17;;;0.60;99.90;;;;;;5037109;28;20458;-60
2023/01/26 03:00:26;;;;;;;53.23;27.50;;;0.60;99.90;;;;;;5043702;28;20529;-59
2023/01/26 03:02:56;;;;;;;53.67;27.03;;;0.70;99.90;;;;;;5040465;28;20872;-60
2023/01/26 03:05:25;;;;;;;58.17;28.57;;;0.60;99.90;;;;;;5038057;28;20466;-61
2023/01/26 03:07:55;;;;;;;61.53;30.43;;;0.60;99.90;;;;;;5047308;28;20507;-61
2023/01/26 03:10:27;;;;;;;57.53;28.47;;;0.70;99.90;;;;;;5032428;28;21014;-60
2023/01/26 03:12:57;;;;;;;59.47;29.20;;;0.80;99.90;;;;;;5035296;28;20539;-61
2023/01/26 03:15:51;;;;;;;58.23;28.60;;;0.70;99.90;;;;;;5032609;28;20466;-60
2023/01/26 03:29:32;;;;;;;54.07;26.50;;;0.80;99.90;;;;;;5043623;28;20910;-61
2023/01/26 03:32:01;;;;;;;54.73;27.07;;;0.80;99.90;;;;;;5050782;28;20474;-61
2023/01/26 03:34:30;;;;;;;48.90;24.20;;;0.80;99.90;;;;;;5044766;28;20469;-60
2023/01/26 03:36:58;;;;;;;45.73;23.43;;;0.80;99.90;;;;;;5040072;28;20483;-60
2023/01/26 03:56:20;;;;;;;48.33;24.33;;;0.70;99.90;;;;;;5048201;28;20476;-61
2023/01/26 03:58:52;;;;;;;48.20;24.07;;;0.70;99.90;;;;;;5042960;28;20470;-61
2023/01/26 04:01:26;;;;;;;40.43;21.70;;;0.70;99.90;;;;;;5034247;28;20495;-60
2023/01/26 04:09:35;;;;;;;44.83;23.20;;;0.80;99.90;;;;;;5031472;28;20476;-60
2023/01/26 04:12:04;;;;;;;41.20;20.83;;;0.70;99.90;;;;;;5011885;28;20592;-61
2023/01/26 04:22:57;;;;;;;38.90;20.00;;;0.80;99.90;;;;;;5048160;28;20499;-60
2023/01/26 04:25:25;;;;;;;40.27;22.07;;;0.90;99.90;;;;;;5031429;28;20491;-61
2023/01/26 04:27:56;;;;;;;42.63;22.53;;;0.90;99.90;;;;;;5032902;28;20525;-61
2023/01/26 04:30:24;;;;;;;38.45;20.63;;;0.80;99.90;;;;;;5042455;28;20410;-61
2023/01/26 04:32:53;;;;;;;39.13;20.77;;;0.90;99.90;;;;;;5034131;28;20275;-60
2023/01/26 04:35:21;;;;;;;42.20;21.10;;;0.80;99.90;;;;;;5028399;28;20478;-60
2023/01/26 04:37:50;;;;;;;36.70;19.93;;;0.80;99.90;;;;;;5030451;28;20487;-61
2023/01/26 04:40:19;;;;;;;38.77;20.60;;;0.80;99.90;;;;;;5030812;28;20467;-61
2023/01/26 04:42:48;;;;;;;34.97;18.47;;;0.90;99.90;;;;;;5030626;28;20866;-61
2023/01/26 04:45:17;;;;;;;37.97;20.07;;;0.90;99.90;;;;;;5030811;28;20484;-60
2023/01/26 04:47:45;;;;;;;43.70;22.37;;;0.90;99.90;;;;;;5030533;28;20854;-61
2023/01/26 04:50:17;;;;;;;40.13;21.40;;;0.80;99.90;;;;;;5030924;28;20904;-61
2023/01/26 04:52:46;;;;;;;41.57;21.47;;;0.90;99.90;;;;;;5030770;28;20467;-60
2023/01/26 04:55:15;;;;;;;38.93;19.23;;;0.90;99.90;;;;;;5030616;28;20473;-61
2023/01/26 04:57:44;;;;;;;41.93;20.73;;;0.90;99.90;;;;;;5014393;28;20482;-60
2023/01/26 05:00:13;;;;;;;39.67;19.53;;;1.00;99.90;;;;;;5042170;28;20509;-59
2023/01/26 05:02:42;;;;;;;33.73;17.77;;;0.90;99.90;;;;;;5050317;28;20528;-61
2023/01/26 05:05:10;;;;;;;43.53;22.20;;;1.00;99.90;;;;;;5039214;28;20464;-61
2023/01/26 05:07:40;;;;;;;38.90;20.83;;;1.00;99.90;;;;;;5030741;28;20871;-60
2023/01/26 05:10:09;;;;;;;36.93;18.73;;;0.90;99.90;;;;;;5030886;28;20476;-61
2023/01/26 05:13:00;;;;;;;39.20;19.23;;;0.90;99.90;;;;;;5032865;28;20985;-60
2023/01/26 05:15:43;;;;;;;38.10;19.77;;;0.90;99.90;;;;;;5031170;28;20810;-60
2023/01/26 05:18:15;;;;;;;39.57;21.40;;;0.80;99.90;;;;;;5033633;28;20547;-60
2023/01/26 05:20:55;;;;;;;38.73;20.70;;;0.90;99.90;;;;;;5038293;28;20459;-60
2023/01/26 05:23:27;;;;;;;40.00;19.73;;;0.90;99.90;;;;;;5034757;28;20492;-60
2023/01/26 05:26:22;;;;;;;43.27;21.77;;;1.00;99.90;;;;;;5033678;28;20472;-60
2023/01/26 05:28:55;;;;;;;40.07;21.47;;;1.00;99.90;;;;;;5038148;28;20475;-60
2023/01/26 05:31:24;;;;;;;39.47;20.20;;;0.90;99.90;;;;;;5041681;28;20557;-60
2023/01/26 05:33:53;;;;;;;39.30;20.00;;;1.00;99.90;;;;;;5047148;28;20470;-59
2023/01/26 05:36:23;;;;;;;37.53;19.30;;;1.10;99.90;;;;;;5038147;28;21090;-60
2023/01/26 05:38:53;;;;;;;39.87;20.73;;;1.30;99.90;;;;;;5034251;28;20879;-60
2023/01/26 05:41:24;;;;;;;41.90;21.53;;;1.20;99.90;;;;;;5033794;28;20475;-60
2023/01/26 05:44:18;;;;;;;38.67;18.53;;;1.20;99.90;;;;;;5027065;28;21002;-60
2023/01/26 05:46:55;;;;;;;37.10;19.53;;;1.10;99.90;;;;;;5034033;28;20470;-60
2023/01/26 05:49:23;;;;;;;37.20;20.60;;;1.10;99.90;;;;;;5034155;28;20999;-60
2023/01/26 05:51:52;;;;;;;38.77;20.50;;;1.10;99.90;;;;;;5034049;28;20805;-61
2023/01/26 05:54:21;;;;;;;36.60;18.83;;;1.10;99.90;;;;;;5033992;28;20475;-60
2023/01/26 05:56:52;;;;;;;35.27;17.83;;;1.10;99.90;;;;;;5050140;28;20499;-60
2023/01/26 05:59:20;;;;;;;33.40;18.47;;;1.20;99.90;;;;;;5041934;28;20482;-61
2023/01/26 06:01:48;;;;;;;36.47;18.37;;;1.20;99.90;;;;;;5034701;28;20900;-60
2023/01/26 06:04:17;;;;;;;36.33;18.40;;;1.10;99.90;;;;;;5041330;28;20487;-60
2023/01/26 06:06:53;;;;;;;36.23;18.70;;;1.20;99.90;;;;;;5036207;28;20528;-60
2023/01/26 06:09:29;;;;;;;35.07;18.23;;;1.20;99.90;;;;;;5033564;28;20482;-61
2023/01/26 06:12:30;;;;;;;35.67;17.90;;;1.10;99.90;;;;;;5015421;28;20472;-60
2023/01/26 06:15:02;;;;;;;32.60;17.63;;;1.10;99.90;;;;;;5033350;28;21009;-61
2023/01/26 06:17:38;;;;;;;33.13;17.30;;;1.10;99.90;;;;;;5033240;28;20541;-60
2023/01/26 06:20:09;;;;;;;32.50;17.30;;;1.10;99.90;;;;;;5037089;28;20879;-61
2023/01/26 06:22:38;;;;;;;33.37;17.87;;;1.40;99.90;;;;;;5032889;28;20502;-61
2023/01/26 06:25:09;;;;;;;33.97;17.67;;;1.40;99.90;;;;;;5034343;28;20487;-60
2023/01/26 06:27:40;;;;;;;33.70;17.07;;;1.30;99.90;;;;;;5035316;28;20546;-60
2023/01/26 06:30:15;;;;;;;31.87;16.47;;;1.20;99.90;;;;;;5044151;28;20474;-61
2023/01/26 06:32:47;;;;;;;32.93;17.30;;;1.30;99.90;;;;;;5053022;28;21019;-60
2023/01/26 06:35:15;;;;;;;34.30;17.03;;;1.20;99.90;;;;;;5040394;28;20471;-60
2023/01/26 06:37:44;;;;;;;32.93;17.93;;;1.30;99.90;;;;;;5048706;28;20468;-60
2023/01/26 06:40:14;;;;;;;31.53;16.37;;;1.20;99.90;;;;;;5031925;28;20478;-60
2023/01/26 06:42:47;;;;;;;34.37;17.93;;;1.20;99.90;;;;;;5049352;28;21040;-61
2023/01/26 06:45:16;;;;;;;32.53;16.70;;;1.20;99.90;;;;;;5032999;28;20499;-60
2023/01/26 06:47:46;;;;;;;34.60;17.87;;;1.20;99.90;;;;;;5032877;28;20468;-60
2023/01/26 06:50:15;;;;;;;33.80;17.63;;;1.10;99.90;;;;;;5033035;28;20808;-61
2023/01/26 06:52:47;;;;;;;31.03;16.83;;;1.10;99.90;;;;;;5025594;28;20972;-60
2023/01/26 06:55:37;;;;;;;29.13;15.83;;;1.10;99.90;;;;;;5029337;28;20500;-60
2023/01/26 06:58:27;;;;;;;29.27;15.23;;;1.20;99.90;;;;;;5047306;28;20567;-60
2023/01/26 07:01:17;;;;;;;28.90;15.53;;;1.20;99.90;;;;;;5032382;28;20999;-60
2023/01/26 07:03:47;;;;;;;34.10;15.83;;;1.30;99.90;;;;;;5037739;28;21009;-59
2023/01/26 07:06:15;;;;;;;34.40;16.27;;;1.50;99.90;;;;;;5037005;28;20988;-60
2023/01/26 07:08:44;;;;;;;30.13;15.13;;;1.40;99.90;;;;;;5025927;28;20534;-59
2023/01/26 07:11:15;;;;;;;33.77;17.27;;;1.40;99.90;;;;;;5023805;28;20452;-60
2023/01/26 07:13:43;;;;;;;31.63;15.60;;;1.30;99.90;;;;;;5031839;28;20562;-60
2023/01/26 07:16:13;;;;;;;35.00;17.03;;;1.30;99.90;;;;;;5030953;28;20475;-61
2023/01/26 07:18:41;;;;;;;31.97;16.37;;;1.40;99.90;;;;;;5024726;28;20468;-61
2023/01/26 07:21:11;;;;;;;35.60;17.67;;;1.30;99.90;;;;;;5023189;28;20484;-60
2023/01/26 07:23:39;;;;;;;32.80;17.53;;;1.20;99.90;;;;;;5023391;28;21054;-61
2023/01/26 07:26:07;;;;;;;32.50;17.30;;;1.20;99.90;;;;;;5021652;28;20479;-61
2023/01/26 07:28:37;;;;;;;29.80;16.40;;;1.30;99.90;;;;;;5023064;28;20478;-60
2023/01/26 07:31:07;;;;;;;30.50;15.30;;;1.30;99.90;;;;;;5022981;28;20538;-60
2023/01/26 07:33:36;;;;;;;32.20;16.00;;;1.40;99.90;;;;;;5034819;28;20463;-60
2023/01/26 07:36:04;;;;;;;30.20;16.63;;;1.30;99.90;;;;;;5028605;28;20465;-61
2023/01/26 07:38:33;;;;;;;26.33;14.43;;;1.20;99.90;;;;;;5031873;28;20464;-61
2023/01/26 07:41:06;;;;;;;30.17;16.27;;;1.20;99.90;;;;;;5032833;28;20468;-60
2023/01/26 07:43:37;;;;;;;27.53;15.20;;;1.30;99.90;;;;;;5030749;28;20471;-60
2023/01/26 07:46:10;;;;;;;30.43;16.37;;;1.40;99.90;;;;;;5022120;28;20510;-60
2023/01/26 07:48:40;;;;;;;26.43;14.03;;;1.30;99.90;;;;;;5022723;28;20579;-61
2023/01/26 07:51:09;;;;;;;29.70;15.90;;;1.40;99.90;;;;;;5024510;28;20577;-61
2023/01/26 07:53:40;;;;;;;29.47;15.43;;;1.40;99.90;;;;;;5021743;28;20467;-60
2023/01/26 07:56:10;;;;;;;27.57;15.07;;;1.40;99.90;;;;;;5020256;28;20471;-61
2023/01/26 07:58:40;;;;;;;28.83;15.33;;;1.30;99.90;;;;;;5022162;28;20469;-61
2023/01/26 08:01:10;;;;;;;24.87;14.37;;;1.30;99.90;;;;;;5023755;28;20494;-61
2023/01/26 08:03:39;;;;;;;27.50;14.43;;;1.20;99.90;;;;;;5022425;28;20983;-61
2023/01/26 08:06:08;;;;;;;27.50;14.97;;;1.20;99.90;;;;;;5025737;28;20471;-61
2023/01/26 08:08:41;;;;;;;26.33;14.00;;;1.20;99.90;;;;;;5029473;28;20487;-61
2023/01/26 08:11:10;;;;;;;26.53;14.27;;;1.40;99.90;;;;;;5033615;28;21293;-61
2023/01/26 08:13:39;;;;;;;25.70;14.03;;;1.40;99.90;;;;;;5025817;28;21028;-61
2023/01/26 08:16:11;;;;;;;27.07;14.33;;;1.30;99.90;;;;;;5024089;28;20982;-61
2023/01/26 08:18:40;;;;;;;24.53;14.17;;;1.20;99.90;;;;;;5023777;28;20485;-61
2023/01/26 08:21:09;;;;;;;23.03;13.43;;;1.20;99.90;;;;;;5028093;28;21006;-61
2023/01/26 08:23:37;;;;;;;22.77;12.50;;;1.20;99.90;;;;;;5027735;28;20479;-61
2023/01/26 08:26:07;;;;;;;23.43;13.13;;;1.30;99.90;;;;;;5026310;28;20499;-61
2023/01/26 08:28:35;;;;;;;23.63;13.23;;;1.30;99.90;;;;;;5025632;28;20465;-61
2023/01/26 08:31:07;;;;;;;22.93;12.83;;;1.30;99.90;;;;;;5026085;28;20895;-61
2023/01/26 08:33:35;;;;;;;24.33;13.10;;;1.30;99.90;;;;;;5029469;28;20872;-61
2023/01/26 08:36:04;;;;;;;22.97;13.07;;;1.40;99.90;;;;;;5024477;28;20459;-61
2023/01/26 08:38:33;;;;;;;21.67;12.10;;;1.30;99.90;;;;;;5025919;28;20960;-61
2023/01/26 08:41:02;;;;;;;22.53;12.47;;;1.30;99.90;;;;;;5028091;28;20477;-61
2023/01/26 08:43:31;;;;;;;20.07;10.97;;;1.40;99.90;;;;;;5032225;28;20464;-61
2023/01/26 08:45:59;;;;;;;20.43;11.10;;;1.40;99.90;;;;;;5032513;28;20490;-61
2023/01/26 08:48:30;;;;;;;20.40;11.43;;;1.40;99.90;;;;;;5030029;28;20981;-61
2023/01/26 08:51:00;;;;;;;18.27;10.23;;;1.40;99.90;;;;;;5034996;28;20553;-60
2023/01/26 08:53:31;;;;;;;22.90;11.67;;;1.40;99.90;;;;;;5030230;28;20999;-61
2023/01/26 08:56:01;;;;;;;21.73;11.87;;;1.50;99.90;;;;;;5039835;28;20476;-61
2023/01/26 08:58:29;;;;;;;18.67;11.37;;;1.40;99.90;;;;;;5046875;28;20465;-61
2023/01/26 09:00:57;;;;;;;20.33;10.97;;;1.40;99.90;;;;;;5035934;28;20491;-61
2023/01/26 09:03:26;;;;;;;20.43;11.00;;;1.40;99.90;;;;;;5036681;28;20464;-61
2023/01/26 09:05:59;;;;;;;19.30;10.80;;;1.30;99.90;;;;;;5035399;28;20530;-60
2023/01/26 09:08:27;;;;;;;18.17;9.73;;;1.30;99.90;;;;;;5034549;28;20464;-61
2023/01/26 09:10:56;;;;;;;19.77;10.53;;;1.30;99.90;;;;;;5035961;28;20467;-61
2023/01/26 09:13:24;;;;;;;18.77;10.50;;;1.30;99.90;;;;;;5034602;28;20479;-61
2023/01/26 09:15:52;;;;;;;18.00;9.37;;;1.40;99.90;;;;;;5035149;28;20596;-60
2023/01/26 09:18:20;;;;;;;19.43;10.60;;;1.60;99.90;;;;;;5035674;28;20828;-61
2023/01/26 09:20:49;;;;;;;21.00;10.63;;;1.70;99.90;;;;;;5035561;28;20952;-58
2023/01/26 09:23:19;;;;;;;21.93;10.23;;;1.60;99.90;;;;;;5037508;28;20529;-60
2023/01/26 09:25:53;;;;;;;21.47;9.77;;;1.60;99.90;;;;;;5031789;28;20488;-60
2023/01/26 09:28:21;;;;;;;22.57;11.13;;;1.60;99.90;;;;;;5029631;28;21018;-61
2023/01/26 09:30:49;;;;;;;22.13;11.03;;;1.50;99.90;;;;;;5028581;28;20483;-61
2023/01/26 09:33:17;;;;;;;21.87;10.47;;;1.40;99.90;;;;;;5029853;28;20478;-61
2023/01/26 09:35:45;;;;;;;26.07;11.47;;;1.50;99.90;;;;;;5029821;28;21037;-61
2023/01/26 09:38:13;;;;;;;25.27;14.17;;;1.40;99.90;;;;;;5028256;28;20456;-61
2023/01/26 09:40:50;;;;;;;25.93;14.23;;;1.50;99.90;;;;;;5030856;28;20485;-61
2023/01/26 09:43:28;;;;;;;35.07;18.90;;;1.40;99.90;;;;;;5029963;28;20485;-61
2023/01/26 09:46:06;;;;;;;51.73;28.87;;;1.40;99.90;;;;;;5028300;28;20479;-61
2023/01/26 09:48:43;;;;;;;32.13;19.10;;;1.40;99.90;;;;;;5030446;28;20467;-61
2023/01/26 09:51:18;;;;;;;34.87;19.30;;;1.40;99.90;;;;;;5029332;28;20475;-62
2023/01/26 09:53:53;;;;;;;39.90;23.60;;;1.40;99.90;;;;;;5028841;28;20476;-61
2023/01/26 09:56:28;;;;;;;34.90;20.57;;;1.40;99.90;;;;;;5027276;28;20463;-62
2023/01/26 09:59:00;;;;;;;37.20;22.07;;;1.40;99.90;;;;;;5028618;28;20467;-61
2023/01/26 10:01:37;;;;;;;36.57;23.93;;;1.40;99.90;;;;;;5032796;28;20986;-62
2023/01/26 10:04:14;;;;;;;33.43;18.73;;;1.40;99.90;;;;;;5032747;28;20857;-61
2023/01/26 10:06:44;;;;;;;34.97;20.47;;;1.40;99.90;;;;;;5029008;28;20582;-61
2023/01/26 10:09:24;;;;;;;51.67;28.87;;;1.40;99.90;;;;;;5030476;28;21276;-61
2023/01/26 10:11:58;;;;;;;67.87;39.27;;;1.50;99.90;;;;;;5028776;28;20495;-61
2023/01/26 10:14:35;;;;;;;52.13;29.30;;;1.60;99.90;;;;;;5028915;28;20471;-61
2023/01/26 10:17:05;;;;;;;49.17;29.17;;;1.50;99.90;;;;;;5026993;28;20467;-61
2023/01/26 10:19:39;;;;;;;40.87;25.30;;;1.50;99.90;;;;;;5027552;28;20472;-62
2023/01/26 10:22:13;;;;;;;42.50;23.97;;;1.50;99.90;;;;;;5029660;28;20471;-61
2023/01/26 10:24:42;;;;;;;40.80;23.70;;;1.60;99.90;;;;;;5034548;28;20506;-61
2023/01/26 10:27:13;;;;;;;39.97;20.33;;;1.50;99.90;;;;;;5035827;28;21014;-61
2023/01/26 10:29:42;;;;;;;33.40;19.80;;;1.40;99.90;;;;;;5033819;28;20507;-61
2023/01/26 10:32:14;;;;;;;33.63;18.83;;;1.50;99.90;;;;;;5032611;28;20677;-61
2023/01/26 10:34:44;;;;;;;30.80;16.97;;;1.40;99.90;;;;;;5031376;28;21137;-61
2023/01/26 10:37:20;;;;;;;31.53;16.13;;;1.50;99.90;;;;;;5032251;28;20475;-61
2023/01/26 10:39:59;;;;;;;35.00;19.57;;;1.40;99.90;;;;;;5033879;28;20467;-61
2023/01/26 10:42:30;;;;;;;32.73;18.50;;;1.40;99.90;;;;;;5033116;28;20470;-62
2023/01/26 10:45:00;;;;;;;30.00;16.43;;;1.40;99.90;;;;;;5032478;28;20480;-61
2023/01/26 10:47:29;;;;;;;32.00;16.33;;;1.40;99.90;;;;;;5030962;28;20498;-61
2023/01/26 10:50:13;;;;;;;26.57;15.13;;;1.40;99.90;;;;;;5031261;28;20827;-61
2023/01/26 10:52:57;;;;;;;27.93;13.03;;;1.50;99.90;;;;;;5035611;28;20484;-61
2023/01/26 10:55:25;;;;;;;35.30;14.17;;;1.80;99.90;;;;;;5034172;28;20834;-62
2023/01/26 10:57:55;;;;;;;31.53;15.17;;;1.60;99.90;;;;;;5032823;28;20476;-62
2023/01/26 11:00:27;;;;;;;33.57;15.00;;;1.60;99.90;;;;;;5034542;28;20470;-62
2023/01/26 11:03:04;;;;;;;29.40;14.80;;;1.60;99.90;;;;;;5034665;28;20476;-61
2023/01/26 11:05:32;;;;;;;32.63;15.73;;;1.60;99.90;;;;;;5029057;28;21277;-62
2023/01/26 11:08:02;;;;;;;28.70;13.90;;;1.60;99.90;;;;;;5027872;28;20502;-62
2023/01/26 11:10:33;;;;;;;35.50;18.57;;;1.80;99.90;;;;;;5030075;28;20477;-61
2023/01/26 11:13:15;;;;;;;34.80;15.57;;;1.70;99.90;;;;;;5029454;28;20480;-62
2023/01/26 11:15:46;;;;;;;33.53;17.40;;;1.80;99.90;;;;;;5031375;28;20467;-62
2023/01/26 11:18:41;;;;;;;34.27;18.43;;;1.80;99.90;;;;;;5032847;28;20474;-62
2023/01/26 11:21:15;;;;;;;37.47;18.73;;;1.80;99.90;;;;;;5033517;28;20494;-61
2023/01/26 11:23:52;;;;;;;35.50;15.90;;;1.90;99.90;;;;;;5035014;28;20485;-62
2023/01/26 11:27:01;;;;;;;35.30;16.70;;;2.20;99.90;;;;;;5028355;28;20493;-62
2023/01/26 11:29:55;;;;;;;32.07;16.43;;;2.20;99.90;;;;;;5031946;28;20483;-62
2023/01/26 11:32:30;;;;;;;35.10;16.07;;;2.00;99.90;;;;;;5022548;28;20480;-62
2023/01/26 11:35:12;;;;;;;37.07;14.93;;;2.20;99.90;;;;;;5029994;28;20475;-62
2023/01/26 11:37:44;;;;;;;31.03;15.87;;;2.30;99.90;;;;;;5028655;28;20458;-62
2023/01/26 11:40:28;;;;;;;34.63;15.60;;;2.10;99.90;;;;;;5030995;28;20490;-62
2023/01/26 11:43:19;;;;;;;34.37;15.43;;;2.30;99.90;;;;;;5033345;28;20898;-62
2023/01/26 11:46:11;;;;;;;36.93;15.90;;;2.20;99.90;;;;;;5026376;28;20482;-62
2023/01/26 11:48:51;;;;;;;40.20;16.20;;;2.20;99.90;;;;;;5031259;28;20475;-62
2023/01/26 11:51:30;;;;;;;41.57;18.30;;;2.60;99.90;;;;;;5032936;28;20464;-61
2023/01/26 11:54:17;;;;;;;41.60;17.57;;;2.80;99.90;;;;;;5032535;28;20752;-62
2023/01/26 11:56:52;;;;;;;46.27;18.57;;;3.00;99.90;;;;;;5031536;28;20501;-62
2023/01/26 11:59:25;;;;;;;49.40;20.17;;;3.00;99.90;;;;;;5033005;28;20473;-61
2023/01/26 12:02:01;;;;;;;39.60;17.13;;;3.00;99.90;;;;;;5031042;28;20829;-62
2023/01/26 12:04:33;;;;;;;38.57;17.90;;;2.70;99.90;;;;;;5030089;28;20900;-62
2023/01/26 12:07:06;;;;;;;37.27;17.50;;;2.60;99.90;;;;;;5028023;28;20486;-62
2023/01/26 12:09:41;;;;;;;40.73;16.40;;;2.50;99.90;;;;;;5027582;28;21049;-62
2023/01/26 12:12:14;;;;;;;39.80;17.87;;;2.70;99.90;;;;;;5029783;28;20481;-62
2023/01/26 12:14:47;;;;;;;36.23;17.80;;;2.80;99.90;;;;;;5029170;28;20481;-61
2023/01/26 12:17:32;;;;;;;43.23;17.70;;;2.70;99.90;;;;;;5026693;28;20463;-62
2023/01/26 12:20:11;;;;;;;40.87;17.37;;;2.90;99.90;;;;;;5028047;28;20530;-62
2023/01/26 12:22:44;;;;;;;38.70;17.33;;;2.70;99.90;;;;;;5026571;28;20476;-62
2023/01/26 12:25:27;;;;;;;42.13;17.80;;;2.90;99.90;;;;;;5027978;28;20474;-62
2023/01/26 12:28:01;;;;;;;37.90;16.63;;;2.90;99.90;;;;;;5028263;28;20494;-62
2023/01/26 12:30:40;;;;;;;38.20;16.20;;;3.10;99.90;;;;;;5033698;28;20964;-61
2023/01/26 12:33:11;;;;;;;35.13;15.37;;;3.00;99.90;;;;;;5031576;28;20788;-62
2023/01/26 12:36:03;;;;;;;40.60;16.07;;;3.10;99.90;;;;;;5027824;28;20559;-61
2023/01/26 12:38:46;;;;;;;41.07;16.73;;;3.30;99.90;;;;;;5017412;28;20485;-62
2023/01/26 12:41:23;;;;;;;49.97;19.20;;;3.20;99.90;;;;;;5025604;28;20475;-62
2023/01/26 12:44:06;;;;;;;39.50;16.93;;;3.20;99.90;;;;;;5029518;28;20484;-62
2023/01/26 12:46:40;;;;;;;41.53;18.37;;;3.10;99.90;;;;;;5029247;28;20492;-62
2023/01/26 12:49:20;;;;;;;40.87;17.53;;;3.10;99.90;;;;;;5028730;28;21208;-62
2023/01/26 12:51:55;;;;;;;44.90;20.37;;;3.30;99.90;;;;;;5030054;28;20473;-62
2023/01/26 12:54:31;;;;;;;43.43;17.93;;;3.20;99.90;;;;;;5030378;28;20483;-62
2023/01/26 12:57:02;;;;;;;52.87;19.13;;;3.40;99.90;;;;;;5031663;28;21010;-62
2023/01/26 12:59:33;;;;;;;42.33;16.33;;;3.40;99.90;;;;;;5031329;28;20996;-62
2023/01/26 13:02:27;;;;;;;52.50;18.67;;;3.40;99.90;;;;;;5027922;28;20485;-62
2023/01/26 13:04:59;;;;;;;44.23;16.40;;;3.20;99.90;;;;;;5029255;28;20481;-61
2023/01/26 13:07:30;;;;;;;43.80;17.30;;;3.10;99.90;;;;;;5028774;28;20483;-61
2023/01/26 13:10:20;;;;;;;51.47;18.07;;;3.10;99.90;;;;;;5031611;28;20570;-62
2023/01/26 13:12:50;;;;;;;40.73;16.03;;;3.30;99.90;;;;;;5029796;28;20469;-62
2023/01/26 13:15:20;;;;;;;45.80;18.13;;;3.40;99.90;;;;;;5031897;28;20531;-62
2023/01/26 13:17:53;;;;;;;52.83;18.37;;;3.50;99.90;;;;;;5030658;28;20527;-61
2023/01/26 13:20:42;;;;;;;46.13;18.27;;;3.40;99.90;;;;;;5027059;28;20475;-61
2023/01/26 13:23:40;;;;;;;50.30;16.83;;;3.40;99.90;;;;;;5024530;28;20562;-61
2023/01/26 13:26:32;;;;;;;54.43;20.30;;;3.40;99.90;;;;;;5024121;28;20481;-61
2023/01/26 13:29:34;;;;;;;50.47;18.73;;;3.50;99.90;;;;;;5024371;28;20479;-61
2023/01/26 13:32:58;;;;;;;42.17;16.67;;;3.40;99.90;;;;;;5022555;28;20484;-61
2023/01/26 13:35:27;;;;;;;36.87;15.83;;;3.40;99.90;;;;;;5025607;28;20827;-61
2023/01/26 13:38:03;;;;;;;46.77;18.50;;;3.40;99.90;;;;;;5022475;28;20475;-61
2023/01/26 13:40:34;;;;;;;39.60;14.43;;;3.50;99.90;;;;;;5027878;28;20484;-61
2023/01/26 13:43:07;;;;;;;41.30;15.07;;;3.70;99.90;;;;;;5027762;28;20931;-61
2023/01/26 13:46:00;;;;;;;40.90;15.90;;;3.80;99.90;;;;;;5028457;28;21086;-61
2023/01/26 13:48:40;;;;;;;38.73;14.63;;;3.90;99.90;;;;;;5026101;28;20905;-62
2023/01/26 13:51:13;;;;;;;37.67;16.40;;;3.90;99.90;;;;;;5028498;28;20479;-61
2023/01/26 13:53:47;;;;;;;43.53;15.07;;;3.80;99.90;;;;;;5029801;28;20479;-60